sensor_id;sensor_type;location;lat;lon;timestamp;pressure;altitude;pressure_sealevel;temperature;humidity
51289;BME280;37372;52.294;5.152;2023-08-17T00:02:13;102087.16;;;16.74;95.94
51289;BME280;37372;52.294;5.152;2023-08-17T00:05:00;102081.31;;;16.64;96.10
51289;BME280;37372;52.294;5.152;2023-08-17T00:07:26;102076.53;;;16.71;95.11
51289;BME280;37372;52.294;5.152;2023-08-17T00:13:20;102079.16;;;16.66;94.95
51289;BME280;37372;52.294;5.152;2023-08-17T00:16:11;102078.19;;;16.61;95.81
51289;BME280;37372;52.294;5.152;2023-08-17T00:18:44;102079.75;;;16.57;96.23
51289;BME280;37372;52.294;5.152;2023-08-17T00:21:10;102083.25;;;16.52;95.54
51289;BME280;37372;52.294;5.152;2023-08-17T00:23:35;102076.84;;;16.51;95.95
51289;BME280;37372;52.294;5.152;2023-08-17T00:26:01;102083.94;;;16.47;96.84
51289;BME280;37372;52.294;5.152;2023-08-17T00:28:29;102085.88;;;16.47;97.14
51289;BME280;37372;52.294;5.152;2023-08-17T00:30:59;102086.63;;;16.42;97.23
51289;BME280;37372;52.294;5.152;2023-08-17T00:33:45;102088.41;;;16.48;96.70
51289;BME280;37372;52.294;5.152;2023-08-17T00:36:11;102086.84;;;16.41;98.24
51289;BME280;37372;52.294;5.152;2023-08-17T00:38:45;102083.47;;;16.39;99.10
51289;BME280;37372;52.294;5.152;2023-08-17T00:41:10;102083.72;;;16.37;98.36
51289;BME280;37372;52.294;5.152;2023-08-17T00:43:36;102089.47;;;16.36;98.47
51289;BME280;37372;52.294;5.152;2023-08-17T00:46:20;102090.34;;;16.36;98.09
51289;BME280;37372;52.294;5.152;2023-08-17T00:48:56;102084.53;;;16.26;97.76
51289;BME280;37372;52.294;5.152;2023-08-17T00:51:24;102087.03;;;16.16;98.19
51289;BME280;37372;52.294;5.152;2023-08-17T00:53:59;102085.59;;;16.13;99.25
51289;BME280;37372;52.294;5.152;2023-08-17T00:56:39;102083.09;;;16.12;99.27
51289;BME280;37372;52.294;5.152;2023-08-17T00:59:10;102093.41;;;16.16;98.36
51289;BME280;37372;52.294;5.152;2023-08-17T01:01:37;102084.03;;;16.06;98.62
51289;BME280;37372;52.294;5.152;2023-08-17T01:04:02;102086.56;;;16.07;99.65
51289;BME280;37372;52.294;5.152;2023-08-17T01:06:28;102084.28;;;16.04;99.49
51289;BME280;37372;52.294;5.152;2023-08-17T01:09:01;102072.22;;;15.98;99.37
51289;BME280;37372;52.294;5.152;2023-08-17T01:11:36;102068.81;;;15.96;98.94
51289;BME280;37372;52.294;5.152;2023-08-17T01:14:27;102075.00;;;15.98;99.35
51289;BME280;37372;52.294;5.152;2023-08-17T01:17:29;102065.47;;;15.94;99.04
51289;BME280;37372;52.294;5.152;2023-08-17T01:20:13;102064.22;;;15.90;99.31
51289;BME280;37372;52.294;5.152;2023-08-17T01:22:50;102063.38;;;15.90;99.06
51289;BME280;37372;52.294;5.152;2023-08-17T01:25:47;102051.47;;;15.89;99.92
51289;BME280;37372;52.294;5.152;2023-08-17T01:28:12;102048.59;;;15.84;100.00
51289;BME280;37372;52.294;5.152;2023-08-17T01:31:10;102048.25;;;15.92;99.30
51289;BME280;37372;52.294;5.152;2023-08-17T01:33:49;102052.31;;;15.90;99.84
51289;BME280;37372;52.294;5.152;2023-08-17T01:36:32;102056.66;;;15.86;100.00
51289;BME280;37372;52.294;5.152;2023-08-17T01:41:55;102049.31;;;15.80;100.00
51289;BME280;37372;52.294;5.152;2023-08-17T01:44:37;102046.28;;;15.81;100.00
51289;BME280;37372;52.294;5.152;2023-08-17T01:47:30;102059.75;;;15.78;100.00
51289;BME280;37372;52.294;5.152;2023-08-17T01:49:56;102057.72;;;15.73;100.00
51289;BME280;37372;52.294;5.152;2023-08-17T01:52:27;102059.00;;;15.70;100.00
51289;BME280;37372;52.294;5.152;2023-08-17T01:54:53;102063.69;;;15.70;100.00
51289;BME280;37372;52.294;5.152;2023-08-17T01:57:23;102070.59;;;15.79;100.00
51289;BME280;37372;52.294;5.152;2023-08-17T01:59:48;102075.28;;;15.79;100.00
51289;BME280;37372;52.294;5.152;2023-08-17T02:02:23;102065.28;;;15.78;100.00
51289;BME280;37372;52.294;5.152;2023-08-17T02:05:07;102063.84;;;15.75;100.00
51289;BME280;37372;52.294;5.152;2023-08-17T02:07:53;102069.31;;;15.63;100.00
51289;BME280;37372;52.294;5.152;2023-08-17T02:10:30;102058.31;;;15.57;100.00
51289;BME280;37372;52.294;5.152;2023-08-17T02:12:55;102067.72;;;15.56;100.00
51289;BME280;37372;52.294;5.152;2023-08-17T02:15:21;102066.25;;;15.53;100.00
51289;BME280;37372;52.294;5.152;2023-08-17T02:17:47;102072.09;;;15.45;100.00
51289;BME280;37372;52.294;5.152;2023-08-17T02:20:32;102067.50;;;15.39;100.00
51289;BME280;37372;52.294;5.152;2023-08-17T02:22:58;102065.13;;;15.42;100.00
51289;BME280;37372;52.294;5.152;2023-08-17T02:25:23;102055.84;;;15.37;100.00
51289;BME280;37372;52.294;5.152;2023-08-17T02:27:53;102047.19;;;15.33;100.00
51289;BME280;37372;52.294;5.152;2023-08-17T02:30:18;102047.19;;;15.33;100.00
51289;BME280;37372;52.294;5.152;2023-08-17T02:32:45;102046.69;;;15.36;100.00
51289;BME280;37372;52.294;5.152;2023-08-17T02:35:23;102043.34;;;15.34;100.00
51289;BME280;37372;52.294;5.152;2023-08-17T02:38:08;102042.84;;;15.37;100.00
51289;BME280;37372;52.294;5.152;2023-08-17T02:40:34;102045.16;;;15.40;100.00
51289;BME280;37372;52.294;5.152;2023-08-17T02:42:59;102043.09;;;15.36;100.00
51289;BME280;37372;52.294;5.152;2023-08-17T02:45:28;102038.25;;;15.31;100.00
51289;BME280;37372;52.294;5.152;2023-08-17T02:47:53;102037.50;;;15.24;100.00
51289;BME280;37372;52.294;5.152;2023-08-17T02:50:27;102039.91;;;15.21;100.00
51289;BME280;37372;52.294;5.152;2023-08-17T02:52:52;102039.19;;;15.25;100.00
51289;BME280;37372;52.294;5.152;2023-08-17T02:58:38;102038.19;;;15.20;100.00
51289;BME280;37372;52.294;5.152;2023-08-17T03:01:26;102039.19;;;15.25;100.00
51289;BME280;37372;52.294;5.152;2023-08-17T03:03:59;102037.97;;;15.21;100.00
51289;BME280;37372;52.294;5.152;2023-08-17T03:06:24;102032.66;;;15.20;100.00
51289;BME280;37372;52.294;5.152;2023-08-17T03:08:50;102027.38;;;15.18;100.00
51289;BME280;37372;52.294;5.152;2023-08-17T03:11:23;102030.13;;;15.18;100.00
51289;BME280;37372;52.294;5.152;2023-08-17T03:13:58;102030.84;;;15.13;100.00
51289;BME280;37372;52.294;5.152;2023-08-17T03:16:34;102033.81;;;15.12;100.00
51289;BME280;37372;52.294;5.152;2023-08-17T03:19:09;102038.75;;;15.10;100.00
51289;BME280;37372;52.294;5.152;2023-08-17T03:21:37;102036.22;;;15.08;100.00
51289;BME280;37372;52.294;5.152;2023-08-17T03:24:02;102036.00;;;15.10;100.00
51289;BME280;37372;52.294;5.152;2023-08-17T03:26:28;102041.34;;;15.05;100.00
51289;BME280;37372;52.294;5.152;2023-08-17T03:28:56;102036.91;;;15.04;100.00
51289;BME280;37372;52.294;5.152;2023-08-17T03:31:31;102040.53;;;15.04;100.00
51289;BME280;37372;52.294;5.152;2023-08-17T03:33:59;102048.81;;;15.04;100.00
51289;BME280;37372;52.294;5.152;2023-08-17T03:36:26;102041.97;;;15.07;100.00
51289;BME280;37372;52.294;5.152;2023-08-17T03:39:00;102054.84;;;15.13;100.00
51289;BME280;37372;52.294;5.152;2023-08-17T03:41:29;102041.66;;;15.15;100.00
51289;BME280;37372;52.294;5.152;2023-08-17T03:43:58;102045.50;;;15.14;100.00
51289;BME280;37372;52.294;5.152;2023-08-17T03:46:28;102046.47;;;15.20;100.00
51289;BME280;37372;52.294;5.152;2023-08-17T03:48:54;102039.19;;;15.25;100.00
51289;BME280;37372;52.294;5.152;2023-08-17T03:51:22;102034.28;;;15.27;100.00
51289;BME280;37372;52.294;5.152;2023-08-17T03:53:56;102038.50;;;15.30;100.00
51289;BME280;37372;52.294;5.152;2023-08-17T03:56:25;102041.84;;;15.32;100.00
51289;BME280;37372;52.294;5.152;2023-08-17T03:59:43;102036.56;;;15.30;100.00
51289;BME280;37372;52.294;5.152;2023-08-17T04:01:52;102033.94;;;15.35;100.00
51289;BME280;37372;52.294;5.152;2023-08-17T04:04:18;102035.19;;;15.39;100.00
51289;BME280;37372;52.294;5.152;2023-08-17T04:06:47;102042.41;;;15.40;100.00
51289;BME280;37372;52.294;5.152;2023-08-17T04:09:13;102032.41;;;15.39;100.00
51289;BME280;37372;52.294;5.152;2023-08-17T04:11:41;102044.31;;;15.40;100.00
51289;BME280;37372;52.294;5.152;2023-08-17T04:14:07;102038.91;;;15.45;100.00
51289;BME280;37372;52.294;5.152;2023-08-17T04:16:34;102048.69;;;15.48;100.00
51289;BME280;37372;52.294;5.152;2023-08-17T04:19:18;102045.28;;;15.45;100.00
51289;BME280;37372;52.294;5.152;2023-08-17T04:21:47;102045.75;;;15.42;100.00
51289;BME280;37372;52.294;5.152;2023-08-17T04:24:12;102047.09;;;15.40;100.00
51289;BME280;37372;52.294;5.152;2023-08-17T04:26:37;102039.75;;;15.45;100.00
51289;BME280;37372;52.294;5.152;2023-08-17T04:29:08;102044.72;;;15.55;100.00
51289;BME280;37372;52.294;5.152;2023-08-17T04:31:36;102048.59;;;15.54;100.00
51289;BME280;37372;52.294;5.152;2023-08-17T04:34:01;102045.13;;;15.59;100.00
51289;BME280;37372;52.294;5.152;2023-08-17T04:36:27;102044.50;;;15.57;100.00
51289;BME280;37372;52.294;5.152;2023-08-17T04:39:03;102041.59;;;15.52;100.00
51289;BME280;37372;52.294;5.152;2023-08-17T04:41:30;102036.81;;;15.59;100.00
51289;BME280;37372;52.294;5.152;2023-08-17T04:43:55;102040.44;;;15.59;100.00
51289;BME280;37372;52.294;5.152;2023-08-17T04:46:30;102038.13;;;15.56;100.00
51289;BME280;37372;52.294;5.152;2023-08-17T04:48:57;102030.41;;;15.58;100.00
51289;BME280;37372;52.294;5.152;2023-08-17T04:51:30;102044.50;;;15.57;100.00
51289;BME280;37372;52.294;5.152;2023-08-17T04:53:56;102036.69;;;15.54;100.00
51289;BME280;37372;52.294;5.152;2023-08-17T04:56:26;102033.44;;;15.57;100.00
51289;BME280;37372;52.294;5.152;2023-08-17T04:59:00;102029.22;;;15.54;100.00
51289;BME280;37372;52.294;5.152;2023-08-17T05:01:26;102027.91;;;15.57;100.00
51289;BME280;37372;52.294;5.152;2023-08-17T05:03:52;102034.66;;;15.61;100.00
51289;BME280;37372;52.294;5.152;2023-08-17T05:06:47;102030.38;;;15.65;100.00
51289;BME280;37372;52.294;5.152;2023-08-17T05:09:12;102022.44;;;15.68;100.00
51289;BME280;37372;52.294;5.152;2023-08-17T05:11:38;102021.84;;;15.66;100.00
51289;BME280;37372;52.294;5.152;2023-08-17T05:14:06;102021.75;;;15.73;100.00
51289;BME280;37372;52.294;5.152;2023-08-17T05:16:47;102020.66;;;15.74;100.00
51289;BME280;37372;52.294;5.152;2023-08-17T05:19:24;102021.88;;;15.78;100.00
51289;BME280;37372;52.294;5.152;2023-08-17T05:22:13;102021.38;;;15.81;100.00
51289;BME280;37372;52.294;5.152;2023-08-17T05:24:39;102033.19;;;15.88;100.00
51289;BME280;37372;52.294;5.152;2023-08-17T05:27:05;102023.78;;;15.78;100.00
51289;BME280;37372;52.294;5.152;2023-08-17T05:29:31;102031.25;;;15.77;100.00
51289;BME280;37372;52.294;5.152;2023-08-17T05:31:57;102024.25;;;15.75;100.00
51289;BME280;37372;52.294;5.152;2023-08-17T05:34:23;102026.97;;;15.93;100.00
51289;BME280;37372;52.294;5.152;2023-08-17T05:36:51;102022.63;;;15.85;100.00
51289;BME280;37372;52.294;5.152;2023-08-17T05:39:17;102020.34;;;15.94;100.00
51289;BME280;37372;52.294;5.152;2023-08-17T05:41:42;102016.84;;;15.87;100.00
51289;BME280;37372;52.294;5.152;2023-08-17T05:44:08;102024.28;;;15.86;100.00
51289;BME280;37372;52.294;5.152;2023-08-17T05:46:36;102016.25;;;15.96;100.00
51289;BME280;37372;52.294;5.152;2023-08-17T05:49:02;102024.91;;;15.88;100.00
51289;BME280;37372;52.294;5.152;2023-08-17T05:51:31;102026.50;;;16.08;100.00
51289;BME280;37372;52.294;5.152;2023-08-17T05:53:56;102019.13;;;16.02;100.00
51289;BME280;37372;52.294;5.152;2023-08-17T05:59:19;102023.97;;;16.06;100.00
51289;BME280;37372;52.294;5.152;2023-08-17T06:01:47;102023.97;;;16.06;100.00
51289;BME280;37372;52.294;5.152;2023-08-17T06:04:15;102025.06;;;16.05;100.00
51289;BME280;37372;52.294;5.152;2023-08-17T06:06:41;102028.66;;;16.06;100.00
51289;BME280;37372;52.294;5.152;2023-08-17T06:09:06;102029.16;;;16.14;100.00
51289;BME280;37372;52.294;5.152;2023-08-17T06:11:51;102030.38;;;16.30;100.00
51289;BME280;37372;52.294;5.152;2023-08-17T06:14:23;102023.97;;;16.41;100.00
51289;BME280;37372;52.294;5.152;2023-08-17T06:17:14;102021.72;;;16.62;100.00
51289;BME280;37372;52.294;5.152;2023-08-17T06:19:45;102028.56;;;16.59;99.24
51289;BME280;37372;52.294;5.152;2023-08-17T06:22:11;102018.94;;;16.50;100.00
51289;BME280;37372;52.294;5.152;2023-08-17T06:24:57;102025.81;;;16.71;98.96
51289;BME280;37372;52.294;5.152;2023-08-17T06:27:24;102028.59;;;16.71;100.00
51289;BME280;37372;52.294;5.152;2023-08-17T06:29:51;102034.59;;;16.79;99.44
51289;BME280;37372;52.294;5.152;2023-08-17T06:32:22;102039.41;;;16.84;99.03
51289;BME280;37372;52.294;5.152;2023-08-17T06:34:51;102034.69;;;16.96;99.72
51289;BME280;37372;52.294;5.152;2023-08-17T06:37:19;102043.44;;;17.05;97.88
51289;BME280;37372;52.294;5.152;2023-08-17T06:39:45;102028.47;;;17.18;95.75
51289;BME280;37372;52.294;5.152;2023-08-17T06:42:11;102035.63;;;17.02;97.31
51289;BME280;37372;52.294;5.152;2023-08-17T06:45:20;102043.94;;;17.14;98.23
51289;BME280;37372;52.294;5.152;2023-08-17T06:47:52;102041.03;;;17.20;95.86
51289;BME280;37372;52.294;5.152;2023-08-17T06:50:17;102049.00;;;17.05;95.18
51289;BME280;37372;52.294;5.152;2023-08-17T06:52:43;102049.63;;;17.07;96.89
51289;BME280;37372;52.294;5.152;2023-08-17T06:55:11;102053.56;;;17.11;96.25
51289;BME280;37372;52.294;5.152;2023-08-17T06:57:36;102051.13;;;17.26;96.06
51289;BME280;37372;52.294;5.152;2023-08-17T07:00:04;102057.72;;;17.37;94.50
51289;BME280;37372;52.294;5.152;2023-08-17T07:02:33;102062.81;;;17.28;94.41
51289;BME280;37372;52.294;5.152;2023-08-17T07:04:59;102059.59;;;17.48;93.33
51289;BME280;37372;52.294;5.152;2023-08-17T07:10:22;102060.56;;;17.54;93.54
51289;BME280;37372;52.294;5.152;2023-08-17T07:12:48;102057.44;;;17.39;93.66
51289;BME280;37372;52.294;5.152;2023-08-17T07:15:16;102057.41;;;17.50;95.08
51289;BME280;37372;52.294;5.152;2023-08-17T07:17:41;102060.88;;;17.57;94.35
51289;BME280;37372;52.294;5.152;2023-08-17T07:20:36;102058.31;;;17.68;94.64
51289;BME280;37372;52.294;5.152;2023-08-17T07:23:02;102065.88;;;17.84;93.29
51289;BME280;37372;52.294;5.152;2023-08-17T07:25:39;102053.84;;;17.95;94.52
51289;BME280;37372;52.294;5.152;2023-08-17T07:28:05;102064.63;;;17.92;92.99
51289;BME280;37372;52.294;5.152;2023-08-17T07:30:30;102068.13;;;17.58;93.04
51289;BME280;37372;52.294;5.152;2023-08-17T07:32:56;102062.81;;;17.57;94.23
51289;BME280;37372;52.294;5.152;2023-08-17T07:35:21;102053.59;;;17.68;93.59
51289;BME280;37372;52.294;5.152;2023-08-17T07:40:31;102053.84;;;17.38;94.13
51289;BME280;37372;52.294;5.152;2023-08-17T07:43:09;102052.72;;;17.11;95.23
51289;BME280;37372;52.294;5.152;2023-08-17T07:45:36;102060.19;;;17.22;96.09
51289;BME280;37372;52.294;5.152;2023-08-17T07:48:02;102054.97;;;17.25;95.13
51289;BME280;37372;52.294;5.152;2023-08-17T07:50:36;102061.56;;;17.36;95.02
51289;BME280;37372;52.294;5.152;2023-08-17T07:53:04;102061.78;;;17.46;95.57
51289;BME280;37372;52.294;5.152;2023-08-17T07:55:52;102064.50;;;17.58;93.93
51289;BME280;37372;52.294;5.152;2023-08-17T07:58:42;102062.75;;;17.52;94.34
51289;BME280;37372;52.294;5.152;2023-08-17T08:01:07;102069.03;;;17.76;94.01
51289;BME280;37372;52.294;5.152;2023-08-17T08:03:33;102061.25;;;17.61;94.10
51289;BME280;37372;52.294;5.152;2023-08-17T08:05:58;102065.38;;;17.58;93.51
51289;BME280;37372;52.294;5.152;2023-08-17T08:08:27;102069.28;;;17.74;91.85
51289;BME280;37372;52.294;5.152;2023-08-17T08:10:53;102064.25;;;17.88;93.46
51289;BME280;37372;52.294;5.152;2023-08-17T08:13:18;102057.91;;;18.04;92.62
51289;BME280;37372;52.294;5.152;2023-08-17T08:15:47;102056.38;;;18.13;89.84
51289;BME280;37372;52.294;5.152;2023-08-17T08:18:12;102060.84;;;18.14;90.84
51289;BME280;37372;52.294;5.152;2023-08-17T08:20:53;102047.41;;;18.23;90.99
51289;BME280;37372;52.294;5.152;2023-08-17T08:23:22;102050.91;;;18.19;91.41
51289;BME280;37372;52.294;5.152;2023-08-17T08:25:47;102045.53;;;18.12;91.41
51289;BME280;37372;52.294;5.152;2023-08-17T08:28:13;102047.03;;;18.03;91.34
51289;BME280;37372;52.294;5.152;2023-08-17T08:30:41;102047.47;;;18.11;92.35
51289;BME280;37372;52.294;5.152;2023-08-17T08:33:06;102052.09;;;18.06;92.80
51289;BME280;37372;52.294;5.152;2023-08-17T08:35:32;102056.56;;;18.07;94.74
51289;BME280;37372;52.294;5.152;2023-08-17T08:38:01;102048.97;;;18.19;93.05
51289;BME280;37372;52.294;5.152;2023-08-17T08:43:22;102050.00;;;18.13;93.50
51289;BME280;37372;52.294;5.152;2023-08-17T08:45:52;102040.13;;;18.22;93.27
51289;BME280;37372;52.294;5.152;2023-08-17T08:48:26;102046.63;;;18.28;92.18
51289;BME280;37372;52.294;5.152;2023-08-17T08:56:46;102031.97;;;18.32;92.67
51289;BME280;37372;52.294;5.152;2023-08-17T08:59:16;102030.25;;;18.48;92.82
51289;BME280;37372;52.294;5.152;2023-08-17T09:01:46;102033.56;;;18.45;92.54
51289;BME280;37372;52.294;5.152;2023-08-17T09:04:12;102027.78;;;18.30;93.07
51289;BME280;37372;52.294;5.152;2023-08-17T09:06:58;102020.38;;;18.35;91.93
51289;BME280;37372;52.294;5.152;2023-08-17T09:09:26;102017.63;;;18.57;92.91
51289;BME280;37372;52.294;5.152;2023-08-17T09:12:08;102019.00;;;18.55;92.63
51289;BME280;37372;52.294;5.152;2023-08-17T09:17:31;102024.22;;;18.51;90.33
51289;BME280;37372;52.294;5.152;2023-08-17T09:19:59;102021.78;;;18.55;93.60
51289;BME280;37372;52.294;5.152;2023-08-17T09:22:41;102022.16;;;18.63;91.42
51289;BME280;37372;52.294;5.152;2023-08-17T09:25:22;102018.31;;;18.48;91.14
51289;BME280;37372;52.294;5.152;2023-08-17T09:27:47;102020.97;;;18.59;91.14
51289;BME280;37372;52.294;5.152;2023-08-17T09:30:13;102021.75;;;18.72;89.97
51289;BME280;37372;52.294;5.152;2023-08-17T09:32:41;102011.88;;;18.81;90.99
51289;BME280;37372;52.294;5.152;2023-08-17T09:35:09;102021.28;;;18.80;89.94
51289;BME280;37372;52.294;5.152;2023-08-17T09:37:44;102004.63;;;18.80;88.32
51289;BME280;37372;52.294;5.152;2023-08-17T09:40:10;102019.13;;;18.82;89.44
51289;BME280;37372;52.294;5.152;2023-08-17T09:42:39;102010.91;;;18.92;87.77
51289;BME280;37372;52.294;5.152;2023-08-17T09:45:05;102008.50;;;18.79;89.00
51289;BME280;37372;52.294;5.152;2023-08-17T09:47:42;101997.19;;;18.85;89.88
51289;BME280;37372;52.294;5.152;2023-08-17T09:50:08;102000.69;;;18.98;90.29
51289;BME280;37372;52.294;5.152;2023-08-17T09:52:41;102000.47;;;19.26;89.60
51289;BME280;37372;52.294;5.152;2023-08-17T09:55:07;101996.09;;;19.08;86.76
51289;BME280;37372;52.294;5.152;2023-08-17T09:57:52;101995.75;;;19.27;86.33
51289;BME280;37372;52.294;5.152;2023-08-17T10:00:22;101990.84;;;19.12;84.59
51289;BME280;37372;52.294;5.152;2023-08-17T10:03:06;101989.59;;;19.25;84.67
51289;BME280;37372;52.294;5.152;2023-08-17T10:05:38;101984.03;;;19.25;84.29
51289;BME280;37372;52.294;5.152;2023-08-17T10:08:06;101989.34;;;19.53;84.85
51289;BME280;37372;52.294;5.152;2023-08-17T10:10:38;101979.34;;;19.52;84.44
51289;BME280;37372;52.294;5.152;2023-08-17T10:16:17;101982.94;;;19.26;86.28
51289;BME280;37372;52.294;5.152;2023-08-17T10:22:39;101975.53;;;19.36;84.92
51289;BME280;37372;52.294;5.152;2023-08-17T10:25:08;101983.31;;;19.34;86.88
51289;BME280;37372;52.294;5.152;2023-08-17T10:27:37;101976.38;;;19.59;88.22
51289;BME280;37372;52.294;5.152;2023-08-17T10:30:14;101973.16;;;19.45;87.00
51289;BME280;37372;52.294;5.152;2023-08-17T10:32:41;101981.50;;;19.50;90.19
51289;BME280;37372;52.294;5.152;2023-08-17T10:38:28;101985.13;;;20.05;83.74
51289;BME280;37372;52.294;5.152;2023-08-17T10:41:29;101988.75;;;20.05;83.77
51289;BME280;37372;52.294;5.152;2023-08-17T10:43:56;101979.09;;;20.18;84.08
51289;BME280;37372;52.294;5.152;2023-08-17T10:47:18;101982.09;;;20.11;82.85
51289;BME280;37372;52.294;5.152;2023-08-17T10:49:43;101985.59;;;19.96;83.93
51289;BME280;37372;52.294;5.152;2023-08-17T10:52:09;101980.25;;;20.27;84.09
51289;BME280;37372;52.294;5.152;2023-08-17T10:54:42;101977.41;;;20.59;81.65
51289;BME280;37372;52.294;5.152;2023-08-17T10:57:51;101978.25;;;20.60;82.69
51289;BME280;37372;52.294;5.152;2023-08-17T11:00:38;101975.31;;;20.39;82.27
51289;BME280;37372;52.294;5.152;2023-08-17T11:03:23;101973.69;;;20.43;81.76
51289;BME280;37372;52.294;5.152;2023-08-17T11:05:53;101965.59;;;20.42;81.27
51289;BME280;37372;52.294;5.152;2023-08-17T11:11:15;101971.19;;;20.42;82.51
51289;BME280;37372;52.294;5.152;2023-08-17T11:13:44;101981.53;;;20.46;83.72
51289;BME280;37372;52.294;5.152;2023-08-17T11:16:37;101992.94;;;20.08;83.51
51289;BME280;37372;52.294;5.152;2023-08-17T11:19:21;101967.78;;;19.97;81.71
51289;BME280;37372;52.294;5.152;2023-08-17T11:21:47;101970.91;;;20.06;83.60
51289;BME280;37372;52.294;5.152;2023-08-17T11:24:39;101975.66;;;20.06;81.22
51289;BME280;37372;52.294;5.152;2023-08-17T11:27:17;101963.28;;;20.34;82.52
51289;BME280;37372;52.294;5.152;2023-08-17T11:29:44;101970.84;;;20.80;80.46
51289;BME280;37372;52.294;5.152;2023-08-17T11:32:10;101963.56;;;20.74;80.05
51289;BME280;37372;52.294;5.152;2023-08-17T11:34:53;101964.84;;;21.19;78.88
51289;BME280;37372;52.294;5.152;2023-08-17T11:37:18;101971.91;;;20.69;79.68
51289;BME280;37372;52.294;5.152;2023-08-17T11:40:01;101968.88;;;20.76;79.90
51289;BME280;37372;52.294;5.152;2023-08-17T11:42:27;101974.00;;;21.04;78.43
51289;BME280;37372;52.294;5.152;2023-08-17T11:44:59;101972.28;;;20.98;80.39
51289;BME280;37372;52.294;5.152;2023-08-17T11:47:27;101967.53;;;20.89;78.69
51289;BME280;37372;52.294;5.152;2023-08-17T11:50:27;101973.50;;;20.55;79.50
51289;BME280;37372;52.294;5.152;2023-08-17T11:52:53;101975.38;;;20.97;79.19
51289;BME280;37372;52.294;5.152;2023-08-17T11:55:22;101961.63;;;20.80;80.40
51289;BME280;37372;52.294;5.152;2023-08-17T11:57:47;101966.75;;;21.08;80.48
51289;BME280;37372;52.294;5.152;2023-08-17T12:00:18;101968.88;;;21.59;79.53
51289;BME280;37372;52.294;5.152;2023-08-17T12:02:53;101971.97;;;21.78;75.94
51289;BME280;37372;52.294;5.152;2023-08-17T12:05:25;101963.28;;;21.84;75.88
51289;BME280;37372;52.294;5.152;2023-08-17T12:08:03;101966.03;;;21.49;76.68
51289;BME280;37372;52.294;5.152;2023-08-17T12:10:30;101963.56;;;21.83;77.06
51289;BME280;37372;52.294;5.152;2023-08-17T12:13:29;101945.97;;;21.67;76.33
51289;BME280;37372;52.294;5.152;2023-08-17T12:16:02;101943.47;;;21.96;76.73
51289;BME280;37372;52.294;5.152;2023-08-17T12:18:34;101948.75;;;22.03;73.90
51289;BME280;37372;52.294;5.152;2023-08-17T12:21:03;101946.75;;;21.37;77.92
51289;BME280;37372;52.294;5.152;2023-08-17T12:23:32;101943.72;;;21.74;75.50
51289;BME280;37372;52.294;5.152;2023-08-17T12:26:04;101947.38;;;21.80;75.18
51289;BME280;37372;52.294;5.152;2023-08-17T12:28:41;101945.91;;;21.36;76.81
51289;BME280;37372;52.294;5.152;2023-08-17T12:31:09;101945.28;;;21.14;77.49
51289;BME280;37372;52.294;5.152;2023-08-17T12:33:41;101957.59;;;21.23;79.95
51289;BME280;37372;52.294;5.152;2023-08-17T12:36:13;101954.31;;;21.42;78.00
51289;BME280;37372;52.294;5.152;2023-08-17T12:38:48;101947.91;;;21.46;78.59
51289;BME280;37372;52.294;5.152;2023-08-17T12:41:17;101955.72;;;21.49;76.21
51289;BME280;37372;52.294;5.152;2023-08-17T12:43:53;101959.34;;;21.96;76.26
51289;BME280;37372;52.294;5.152;2023-08-17T12:46:27;101951.56;;;22.03;77.00
51289;BME280;37372;52.294;5.152;2023-08-17T12:48:53;101949.19;;;21.18;77.52
51289;BME280;37372;52.294;5.152;2023-08-17T12:51:28;101959.38;;;21.90;76.48
51289;BME280;37372;52.294;5.152;2023-08-17T12:53:53;101955.19;;;21.78;75.70
51289;BME280;37372;52.294;5.152;2023-08-17T12:56:19;101954.63;;;21.76;77.08
51289;BME280;37372;52.294;5.152;2023-08-17T12:58:45;101956.03;;;21.73;75.94
51289;BME280;37372;52.294;5.152;2023-08-17T13:01:11;101951.19;;;21.28;77.97
51289;BME280;37372;52.294;5.152;2023-08-17T13:03:36;101954.22;;;21.06;79.20
51289;BME280;37372;52.294;5.152;2023-08-17T13:06:02;101953.03;;;20.87;81.58
51289;BME280;37372;52.294;5.152;2023-08-17T13:08:28;101946.41;;;21.18;79.36
51289;BME280;37372;52.294;5.152;2023-08-17T13:10:53;101949.97;;;20.93;81.04
51289;BME280;37372;52.294;5.152;2023-08-17T13:13:22;101950.56;;;21.05;80.36
51289;BME280;37372;52.294;5.152;2023-08-17T13:15:47;101958.41;;;21.19;81.15
51289;BME280;37372;52.294;5.152;2023-08-17T13:18:13;101949.41;;;20.91;80.24
51289;BME280;37372;52.294;5.152;2023-08-17T13:20:39;101952.53;;;21.00;82.09
51289;BME280;37372;52.294;5.152;2023-08-17T13:23:05;101956.66;;;20.92;81.12
51289;BME280;37372;52.294;5.152;2023-08-17T13:25:34;101946.88;;;20.90;80.42
51289;BME280;37372;52.294;5.152;2023-08-17T13:28:02;101966.13;;;20.81;81.41
51289;BME280;37372;52.294;5.152;2023-08-17T13:30:30;101956.09;;;20.90;80.65
51289;BME280;37372;52.294;5.152;2023-08-17T13:33:05;101956.06;;;20.85;80.67
51289;BME280;37372;52.294;5.152;2023-08-17T13:35:33;101948.97;;;20.57;82.64
51289;BME280;37372;52.294;5.152;2023-08-17T13:38:10;101944.84;;;20.70;81.52
51289;BME280;37372;52.294;5.152;2023-08-17T13:40:38;101939.41;;;21.10;80.57
51289;BME280;37372;52.294;5.152;2023-08-17T13:43:07;101952.34;;;21.42;79.50
51289;BME280;37372;52.294;5.152;2023-08-17T13:45:43;101943.38;;;21.20;78.95
51289;BME280;37372;52.294;5.152;2023-08-17T13:48:28;101946.88;;;20.90;82.02
51289;BME280;37372;52.294;5.152;2023-08-17T13:50:59;101938.63;;;21.20;82.13
51289;BME280;37372;52.294;5.152;2023-08-17T13:53:28;101945.31;;;21.19;81.17